Harrisburg, Pennsylvania
Current Conditions -  °F | °C
As of 7:56 PM on Saturday 25 Oct 2014 (Local Time) from KCXY Reporting Station
Clear Clear  
Wind Chill: 63°   Ceiling: Unl
Heat Index: 63°   Visibility: 10mi
Dew Point: 45°   Wind: 5mph
Humidity: 52%   Direction: 270°W
Pressure: 29.69"   Gusts: NA
Location:  40.26°N, 76.88°W
Report Text: KCXY 252356Z 27004KT 10SM CLR 17/07 A2969 RMK AO2 SLP054 T01720072 10211 20172 55003
Loading
Personal Weather Stations






























Interactive Weather Map New forecast layout! Learn more

10-Day Weather Forecast

Advertisements
Track Severe Weather on mobile